Terminal Aerodrome Forecast
Issued by NWS

Home | Current Version | Previous Version | Graphics & Text | Print | Product List | Glossary Off
Versions: 1 2 3 4 5 6 7 8 9 10 11 12 13 14 15 16 17 18 19 20 21 22 23 24 25 26

000
FTUS43 KDDC 290547 RRA
TAFHYS
TAF
KHYS 290547Z 2906/3006 05010KT P6SM SCT060
     FM291700 05012G18KT P6SM SCT060
     FM300000 08008KT P6SM OVC100=

USA.gov is the U.S. government's official web portal to all federal, state and local government web resources and services.